Flight Track Log - Related Links

Times and Time Zones

All times are in EDT time to prevent confusion due to time zone crossing. See the N135FL flight status page for this flight to view local times or setup timezone preferences in your user account.

Time Position Orientation Groundspeed Altitude Reporting Facility
EDT Latitude Longitude Course Direction KTS MPH feet Rate Location/Type
Mon 06:10:13 PM 26.2289 -81.7525 262° West 167 192 2,400  Level Miami Center
Mon 06:11:15 PM 26.2294 -81.8047 271° West 167 192 3,400 1,024 Climbing Miami Center
Mon 06:12:16 PM 26.2275 -81.8583 268° West 170 196 4,500 1,220 Climbing Miami Center
Mon 06:13:18 PM 26.2247 -81.9122 267° West 166 191 5,900 1,161 Climbing Miami Center
Mon 06:14:00 PM 26.3576 -82.0174 270° West  Level Estimated
Mon 06:14:20 PM 26.2200 -81.9608 264° West 160 184 6,900  Level Miami Center
Mon 06:15:00 PM 26.3918 -82.0578 262° West  Level Estimated
Mon 06:15:21 PM 26.2156 -82.0200 265° West 176 203 7,900  Level Miami Center
Mon 06:16:23 PM 26.2144 -82.0764 269° West 180 207 8,700 871 Climbing Miami Center
Mon 06:17:25 PM 26.2133 -82.1383 269° West 186 214 9,700 927 Climbing Miami Center
Mon 06:18:26 PM 26.2128 -82.1978 269° West 192 221 10,600 780 Climbing Miami Center
Mon 06:19:28 PM 26.2139 -82.2578 271° West 193 222 11,300 585 Climbing Miami Center
Mon 06:20:29 PM 26.2156 -82.3275 272° West 207 238 11,800 585 Climbing Miami Center
Mon 06:21:31 PM 26.2317 -82.3894 286° West 216 249 12,500 927 Climbing Miami Center
Mon 06:22:32 PM 26.2750 -82.4367 316° Northwest 208 239 13,700 1,122 Climbing Miami Center
Mon 06:23:34 PM 26.3139 -82.4783 316° Northwest 202 232 14,800 1,073 Climbing Miami Center
Mon 06:24:35 PM 26.3547 -82.5222 316° Northwest 192 221 15,900 1,024 Climbing Miami Center
Mon 06:25:37 PM 26.3883 -82.5581 316° Northwest 189 217 16,900 976 Climbing Miami Center
Mon 06:26:38 PM 26.4247 -82.5981 315° West 187 215 17,900 976 Climbing Miami Center
Mon 06:27:40 PM 26.4625 -82.6375 317° Northwest 186 214 18,900 968 Climbing Miami Center
Mon 06:28:42 PM 26.5011 -82.6797 316° Northwest 189 217 19,900 1,073 Climbing Miami Center
Mon 06:29:43 PM 26.5486 -82.7294 317° Northwest 192 221 21,100 1,073 Climbing Miami Center
Mon 06:30:45 PM 26.5889 -82.7731 316° Northwest 199 229 22,100 976 Climbing Miami Center
Mon 06:31:46 PM 26.6292 -82.8158 316° Northwest 199 229 23,100 976 Climbing Miami Center
Mon 06:32:48 PM 26.6681 -82.8572 316° Northwest 198 228 24,100 927 Climbing Miami Center
Mon 06:33:49 PM 26.7061 -82.9006 315° West 196 226 25,000 780 Climbing Miami Center
Mon 06:34:51 PM 26.7472 -82.9450 316° Northwest 202 232 25,700 488 Climbing Miami Center
Mon 06:35:52 PM 26.7917 -82.9914 317° Northwest 214 246 26,000 146 Climbing Miami Center
Mon 06:36:54 PM 26.8389 -83.0439 315° West 232 267 26,000  Level Miami Center
Mon 06:37:55 PM 26.9025 -83.1114 317° Northwest 256 295 26,000  Level Miami Center
Mon 06:38:57 PM 26.9544 -83.1683 316° Northwest 257 296 26,000  Level Miami Center
Mon 06:39:58 PM 27.0083 -83.2256 317° Northwest 262 302 26,000  Level Miami Center
Mon 06:41:00 PM 27.0603 -83.2828 316° Northwest 262 302 26,000  Level Miami Center
Mon 06:42:01 PM 27.1131 -83.3383 317° Northwest 262 302 26,000  Level Miami Center
Mon 06:43:03 PM 27.1653 -83.3964 315° West 262 302 26,000  Level Miami Center
Mon 06:44:04 PM 27.2178 -83.4533 316° Northwest 262 302 26,000  Level Miami Center
Mon 06:45:06 PM 27.2681 -83.5086 316° Northwest 258 297 26,000  Level Miami Center
Mon 06:46:07 PM 27.3197 -83.5656 316° Northwest 258 297 26,000  Level Miami Center
Mon 06:47:09 PM 27.3817 -83.6331 316° Northwest 258 297 26,000  Level Miami Center
Mon 06:48:10 PM 27.4328 -83.6892 316° Northwest 258 297 26,000  Level Miami Center
Mon 06:49:12 PM 27.4836 -83.7453 316° Northwest 258 297 26,000  Level Miami Center
Mon 06:50:13 PM 27.5347 -83.8022 315° West 258 297 26,000  Level Miami Center
Mon 06:51:15 PM 27.5861 -83.8589 316° Northwest 258 297 26,000  Level Miami Center
Mon 06:52:16 PM 27.6375 -83.9156 316° Northwest 258 297 26,000  Level Miami Center
Mon 06:53:18 PM 27.6894 -83.9722 316° Northwest 258 297 26,000  Level Miami Center
Mon 06:54:19 PM 27.7406 -84.0289 316° Northwest 258 297 26,000  Level Miami Center
Mon 06:55:21 PM 27.7914 -84.0867 315° West 258 297 26,000  Level Miami Center
Mon 06:56:22 PM 27.8531 -84.1544 316° Northwest 258 297 26,000  Level Miami Center
Mon 06:57:24 PM 27.9044 -84.2122 315° West 258 297 26,000  Level Miami Center
Mon 06:58:25 PM 27.9558 -84.2692 316° Northwest 258 297 26,000  Level Miami Center
Mon 06:59:27 PM 28.0072 -84.3258 316° Northwest 258 297 26,000  Level Miami Center
Mon 07:00:28 PM 28.0575 -84.3828 315° West 258 297 26,000  Level Miami Center
Mon 07:01:30 PM 28.1125 -84.4447 315° West 258 297 26,000  Level Miami Center
Mon 07:02:14 PM 28.1464 -84.4861 313° West 254 292 26,000  Level Jacksonville Center
Mon 07:03:14 PM 28.1956 -84.5481 312° West 259 298 26,000  Level Jacksonville Center
Mon 07:04:14 PM 28.2492 -84.6008 319° Northwest 259 298 26,000  Level Jacksonville Center
Mon 07:05:14 PM 28.3028 -84.6561 318° Northwest 259 298 26,000  Level Jacksonville Center
Mon 07:06:14 PM 28.3539 -84.7183 313° West 259 298 26,000  Level Jacksonville Center
Mon 07:07:14 PM 28.4053 -84.7758 315° West 259 298 26,000  Level Jacksonville Center
Mon 07:08:14 PM 28.4567 -84.8381 313° West 254 292 26,000  Level Jacksonville Center
Mon 07:09:14 PM 28.5100 -84.8958 316° Northwest 254 292 26,000  Level Jacksonville Center
Mon 07:10:14 PM 28.5633 -84.9489 319° Northwest 254 292 26,000  Level Jacksonville Center
Mon 07:11:14 PM 28.6103 -85.0136 310° West 254 292 26,000  Level Jacksonville Center
Mon 07:12:14 PM 28.6658 -85.0647 321° Northwest 254 292 26,000  Level Jacksonville Center
Mon 07:13:14 PM 28.7147 -85.1294 311° West 254 292 26,000  Level Jacksonville Center
Mon 07:14:14 PM 28.7639 -85.1850 315° West 254 292 26,000  Level Jacksonville Center
Mon 07:15:14 PM 28.8169 -85.2456 315° West 254 292 26,000  Level Jacksonville Center
Mon 07:16:14 PM 28.8681 -85.3014 316° Northwest 249 287 26,000  Level Jacksonville Center
Mon 07:17:14 PM 28.9192 -85.3642 313° West 254 292 26,000  Level Jacksonville Center
Mon 07:18:14 PM 28.9722 -85.4225 316° Northwest 254 292 26,000  Level Jacksonville Center
Mon 07:19:14 PM 29.0233 -85.4808 315° West 254 292 26,000  Level Jacksonville Center
Mon 07:20:14 PM 29.0742 -85.5392 315° West 248 285 26,000  Level Jacksonville Center
Mon 07:21:14 PM 29.1253 -85.5975 315° West 253 291 26,000  Level Jacksonville Center
Mon 07:22:14 PM 29.1761 -85.6583 314° West 253 291 26,000  Level Jacksonville Center
Mon 07:23:14 PM 29.2269 -85.7169 315° West 253 291 26,000  Level Jacksonville Center
Mon 07:24:14 PM 29.2778 -85.7756 315° West 248 285 26,000  Level Jacksonville Center
Mon 07:25:14 PM 29.3289 -85.8319 316° Northwest 253 291 26,000  Level Jacksonville Center
Mon 07:26:14 PM 29.3797 -85.8906 315° West 253 291 26,000 -250 Level Jacksonville Center
Mon 07:27:14 PM 29.4325 -85.9517 315° West 253 291 25,500 -500 Descending Jacksonville Center
Mon 07:28:14 PM 29.4853 -86.0131 315° West 253 291 25,000 -500 Descending Jacksonville Center
Mon 07:29:14 PM 29.5378 -86.0767 313° West 264 304 24,500 -600 Descending Jacksonville Center
Mon 07:30:14 PM 29.5908 -86.1358 316° Northwest 264 304 23,800 -750 Descending Jacksonville Center
Mon 07:31:14 PM 29.6433 -86.1972 315° West 269 310 23,000 -800 Descending Jacksonville Center
Mon 07:32:14 PM 29.6919 -86.2564 313° West 269 310 22,200 -800 Descending Jacksonville Center
Mon 07:33:14 PM 29.7425 -86.3156 315° West 269 310 21,400 -800 Descending Jacksonville Center
Mon 07:34:14 PM 29.7931 -86.3747 315° West 264 304 20,600 -800 Descending Jacksonville Center
Mon 07:35:14 PM 29.8436 -86.4339 315° West 259 298 19,800 -892 Descending Jacksonville Center
Mon 07:38:23 PM 29.9889 -86.6119 312° West 231 266 16,900 -938 Descending Jacksonville Center
Mon 07:39:30 PM 30.0436 -86.6717 317° Northwest 231 266 15,800 -984 Descending Jacksonville Center
Mon 07:40:31 PM 30.0897 -86.7286 313° West 229 264 14,800 -992 Descending Jacksonville Center
Mon 07:41:31 PM 30.1408 -86.7642 329° Northwest 227 261 13,800 -1,041 Descending Jacksonville Center
Mon 07:42:32 PM 30.1958 -86.8097 324° Northwest 228 262 12,700 -992 Descending Jacksonville Center
Mon 07:43:32 PM 30.2447 -86.8478 326° Northwest 222 255 11,800 -942 Descending Jacksonville Center
Mon 07:44:33 PM 30.2956 -86.8908 324° Northwest 217 250 10,800 -1,082 Descending Jacksonville Center
Mon 07:45:34 PM 30.3425 -86.9311 323° Northwest 215 247 9,600 -1,190 Descending Jacksonville Center
Mon 07:46:34 PM 30.3933 -86.9694 327° Northwest 210 242 8,400 -1,190 Descending Jacksonville Center
Mon 07:47:35 PM 30.4422 -87.0100 324° Northwest 208 239 7,200 -1,240 Descending Jacksonville Center
Mon 07:48:35 PM 30.4847 -87.0456 324° Northwest 199 229 5,900 -1,289 Descending Jacksonville Center
Mon 07:49:36 PM 30.5339 -87.0814 328° Northwest 192 221 4,600 -1,279 Descending Jacksonville Center
Mon 07:50:37 PM 30.5636 -87.1239 309° West 173 199 3,300 -1,240 Descending Jacksonville Center
Mon 07:51:37 PM 30.5639 -87.1769 270° West 163 188 2,100 -893 Descending Jacksonville Center
Mon 07:52:38 PM 30.5339 -87.2019 216° Southwest 146 168 1,500 -835 Descending Jacksonville Center
Mon 07:53:32 PM 30.5006 -87.1981 174° South 126 145 500 -1,111 Descending Jacksonville Center
Mon 07:55:00 PM 30.4667 -87.1833 168° South  Level FlightAware Approximate

Login

Don't have an account? Register now (free) for customized features, flight alerts, and more!